createdAt,value
2023-04-03T00:00:59.535Z,22.21
2023-04-03T00:01:59.596Z,22.23
2023-04-03T00:02:59.591Z,22.17
2023-04-03T00:03:59.577Z,22.20
2023-04-03T00:04:59.612Z,22.20
2023-04-03T00:05:59.614Z,22.23
2023-04-03T00:06:59.652Z,22.17
2023-04-03T00:07:59.673Z,22.17
2023-04-03T00:08:59.639Z,22.18
2023-04-03T00:09:59.648Z,22.15
2023-04-03T00:10:59.657Z,22.18
2023-04-03T00:11:59.704Z,22.15
2023-04-03T00:12:59.744Z,22.20
2023-04-03T00:13:59.727Z,22.20
2023-04-03T00:14:59.751Z,22.22
2023-04-03T00:15:59.779Z,22.18
2023-04-03T00:16:59.831Z,22.21
2023-04-03T00:17:59.865Z,22.14
2023-04-03T00:18:59.883Z,22.20
2023-04-03T00:19:59.899Z,22.17
2023-04-03T00:20:59.922Z,22.17
2023-04-03T00:21:59.945Z,22.15
2023-04-03T00:22:59.933Z,22.17
2023-04-03T00:23:59.962Z,22.15
2023-04-03T00:25:00.001Z,22.18
2023-04-03T00:26:00.025Z,22.20
2023-04-03T00:27:00.036Z,22.18
2023-04-03T00:28:00.056Z,22.20
2023-04-03T00:29:00.105Z,22.18
2023-04-03T00:30:00.171Z,22.22
2023-04-03T00:31:00.146Z,22.17
2023-04-03T00:32:00.174Z,22.17
2023-04-03T00:33:00.226Z,22.18
2023-04-03T00:34:00.176Z,22.15
2023-04-03T00:35:00.182Z,22.11
2023-04-03T00:36:00.320Z,22.17
2023-04-03T00:37:00.395Z,22.18
2023-04-03T00:38:00.256Z,22.11
2023-04-03T00:39:00.292Z,22.14
2023-04-03T00:40:00.300Z,22.09
2023-04-03T00:41:00.326Z,22.15
2023-04-03T00:42:00.372Z,22.12
2023-04-03T00:43:00.371Z,22.11
2023-04-03T00:44:00.449Z,22.14
2023-04-03T00:45:00.428Z,22.13
2023-04-03T00:46:00.525Z,22.14
2023-04-03T00:47:00.513Z,22.12
2023-04-03T00:48:00.617Z,22.11
2023-04-03T00:49:00.561Z,22.11
2023-04-03T00:50:00.542Z,22.07
2023-04-03T00:51:00.554Z,22.06
2023-04-03T00:52:00.625Z,22.11
2023-04-03T00:53:00.563Z,22.15
2023-04-03T00:54:00.592Z,22.15
2023-04-03T00:55:00.614Z,22.11
2023-04-03T00:56:00.609Z,22.11
2023-04-03T00:57:00.720Z,22.09
2023-04-03T00:58:00.672Z,22.09
2023-04-03T00:59:00.711Z,22.11
2023-04-03T01:00:00.690Z,22.11
2023-04-03T01:01:00.740Z,22.11
2023-04-03T01:02:00.930Z,22.07
2023-04-03T01:03:00.950Z,22.15
2023-04-03T01:04:00.860Z,22.11
2023-04-03T01:05:00.834Z,22.11
2023-04-03T01:06:00.868Z,22.12
2023-04-03T01:07:00.925Z,22.17
2023-04-03T01:08:00.921Z,22.13
2023-04-03T01:09:00.926Z,22.09
2023-04-03T01:10:00.957Z,22.12
2023-04-03T01:11:00.983Z,22.11
2023-04-03T01:12:01.045Z,22.11
2023-04-03T01:13:01.083Z,22.07
2023-04-03T01:14:01.076Z,22.07
2023-04-03T01:15:01.110Z,22.07
2023-04-03T01:16:01.165Z,22.15
2023-04-03T01:17:01.181Z,22.11
2023-04-03T01:18:01.213Z,22.11
2023-04-03T01:19:01.221Z,22.12
2023-04-03T01:20:01.239Z,22.10
2023-04-03T01:21:01.266Z,22.06
2023-04-03T01:22:01.306Z,22.05
2023-04-03T01:23:01.353Z,22.10
2023-04-03T01:24:01.367Z,22.09
2023-04-03T01:25:01.374Z,22.07
2023-04-03T01:26:01.403Z,22.07
2023-04-03T01:27:01.424Z,22.06
2023-04-03T01:28:01.457Z,22.06
2023-04-03T01:29:01.536Z,22.06
2023-04-03T01:30:01.496Z,22.01
2023-04-03T01:31:01.518Z,22.10
2023-04-03T01:32:01.581Z,22.06
2023-04-03T01:33:01.644Z,22.03
2023-04-03T01:34:01.628Z,22.03
2023-04-03T01:35:01.636Z,22.03
2023-04-03T01:36:01.694Z,22.03
2023-04-03T01:37:01.696Z,22.00
2023-04-03T01:38:01.730Z,22.01
2023-04-03T01:39:01.759Z,21.95
2023-04-03T01:40:01.789Z,22.01
2023-04-03T01:41:01.792Z,21.98
2023-04-03T01:42:01.870Z,22.01
2023-04-03T01:43:01.850Z,22.00
2023-04-03T01:44:01.881Z,21.94
2023-04-03T01:45:01.905Z,21.95
2023-04-03T01:46:02.003Z,21.92
2023-04-03T01:47:01.951Z,21.98
2023-04-03T01:48:02.059Z,21.98
2023-04-03T01:49:02.031Z,21.94
2023-04-03T01:50:02.039Z,21.94
2023-04-03T01:51:02.015Z,21.94
2023-04-03T01:52:02.019Z,21.91
2023-04-03T01:53:02.051Z,21.89
2023-04-03T01:54:02.049Z,21.91
2023-04-03T01:55:02.035Z,21.88
2023-04-03T01:56:02.050Z,21.88
2023-04-03T01:57:02.123Z,21.85
2023-04-03T01:58:02.124Z,21.85
2023-04-03T01:59:02.145Z,21.88
2023-04-03T02:00:02.225Z,21.85
2023-04-03T02:01:02.228Z,21.81
2023-04-03T02:02:02.274Z,21.88
2023-04-03T02:03:02.290Z,21.88
2023-04-03T02:04:02.289Z,21.84
2023-04-03T02:05:02.273Z,21.83
2023-04-03T02:06:02.300Z,21.81
2023-04-03T02:07:02.313Z,21.81
2023-04-03T02:08:02.288Z,21.82
2023-04-03T02:09:02.319Z,21.89
2023-04-03T02:10:02.406Z,21.81
2023-04-03T02:11:02.406Z,21.83
2023-04-03T02:12:02.441Z,21.80
2023-04-03T02:13:02.466Z,21.69
2023-04-03T02:14:02.500Z,21.77
2023-04-03T02:15:02.521Z,21.75
2023-04-03T02:16:02.546Z,21.80
2023-04-03T02:17:02.638Z,21.79
2023-04-03T02:18:02.587Z,21.74
2023-04-03T02:19:03.534Z,21.74
2023-04-03T02:20:02.547Z,21.75
2023-04-03T02:21:02.514Z,21.72
2023-04-03T02:22:02.557Z,21.71
2023-04-03T02:23:02.509Z,21.74
2023-04-03T02:24:02.529Z,21.71
2023-04-03T02:25:02.513Z,21.75
2023-04-03T02:26:02.486Z,21.74
2023-04-03T02:27:02.496Z,21.73
2023-04-03T02:28:02.465Z,21.68
2023-04-03T02:29:02.489Z,21.74
2023-04-03T02:30:02.487Z,21.74
2023-04-03T02:31:02.466Z,21.74
2023-04-03T02:32:02.457Z,21.72
2023-04-03T02:33:02.532Z,21.66
2023-04-03T02:34:02.435Z,21.71
2023-04-03T02:35:02.435Z,21.66
2023-04-03T02:36:02.498Z,21.62
2023-04-03T02:37:02.439Z,21.66
2023-04-03T02:38:02.411Z,21.62
2023-04-03T02:39:02.408Z,21.65
2023-04-03T02:40:02.385Z,21.69
2023-04-03T02:41:02.380Z,21.63
2023-04-03T02:42:02.398Z,21.69
2023-04-03T02:43:02.393Z,21.69
2023-04-03T02:44:02.349Z,21.68
2023-04-03T02:45:02.370Z,21.65
2023-04-03T02:46:02.375Z,21.59
2023-04-03T02:47:02.333Z,21.60
2023-04-03T02:48:02.421Z,21.60
2023-04-03T02:49:02.342Z,21.66
2023-04-03T02:50:02.359Z,21.63
2023-04-03T02:51:02.341Z,21.66
2023-04-03T02:52:02.418Z,21.65
2023-04-03T02:53:02.433Z,21.60
2023-04-03T02:54:02.476Z,21.59
2023-04-03T02:55:02.521Z,21.62
2023-04-03T02:56:02.574Z,21.64
2023-04-03T02:57:02.651Z,21.56
2023-04-03T02:58:02.657Z,21.63
2023-04-03T02:59:02.673Z,21.57
2023-04-03T03:00:02.752Z,21.62
2023-04-03T03:01:02.778Z,21.57
2023-04-03T03:02:02.962Z,21.62
2023-04-03T03:03:02.859Z,21.57
2023-04-03T03:04:02.879Z,21.54
2023-04-03T03:05:02.985Z,21.52
2023-04-03T03:06:02.996Z,21.52
2023-04-03T03:07:03.040Z,21.54
2023-04-03T03:08:03.043Z,21.57
2023-04-03T03:09:03.099Z,21.52
2023-04-03T03:10:03.146Z,21.52
2023-04-03T03:11:03.173Z,21.49
2023-04-03T03:12:03.215Z,21.49
2023-04-03T03:13:03.270Z,21.49
2023-04-03T03:14:03.324Z,21.48
2023-04-03T03:15:03.367Z,21.51
2023-04-03T03:16:03.418Z,21.45
2023-04-03T03:17:03.361Z,21.48
2023-04-03T03:18:03.458Z,21.46
2023-04-03T03:19:03.362Z,21.46
2023-04-03T03:20:03.390Z,21.45
2023-04-03T03:21:03.415Z,21.43
2023-04-03T03:22:03.403Z,21.43
2023-04-03T03:23:03.418Z,21.42
2023-04-03T03:24:03.403Z,21.45
2023-04-03T03:25:03.438Z,21.48
2023-04-03T03:26:03.418Z,21.43
2023-04-03T03:27:03.401Z,21.40
2023-04-03T03:28:03.417Z,21.40
2023-04-03T03:29:03.479Z,21.42
2023-04-03T03:30:03.515Z,21.40
2023-04-03T03:31:03.681Z,21.35
2023-04-03T03:32:03.619Z,21.39
2023-04-03T03:33:03.740Z,21.34
2023-04-03T03:34:03.704Z,21.31
2023-04-03T03:35:03.741Z,21.28
2023-04-03T03:36:03.906Z,21.28
2023-04-03T03:37:03.837Z,21.31
2023-04-03T03:38:03.885Z,21.24
2023-04-03T03:39:03.932Z,21.33
2023-04-03T03:40:03.985Z,21.28
2023-04-03T03:41:03.888Z,21.28
2023-04-03T03:42:03.922Z,21.23
2023-04-03T03:43:03.899Z,21.22
2023-04-03T03:44:03.889Z,21.21
2023-04-03T03:45:03.912Z,21.19
2023-04-03T03:46:03.902Z,21.17
2023-04-03T03:47:03.920Z,21.13
2023-04-03T03:48:03.974Z,21.16
2023-04-03T03:49:03.901Z,21.13
2023-04-03T03:50:03.902Z,21.08
2023-04-03T03:51:03.916Z,21.14
2023-04-03T03:52:03.921Z,21.10
2023-04-03T03:53:03.916Z,21.10
2023-04-03T03:54:03.904Z,21.05
2023-04-03T03:55:03.897Z,21.04
2023-04-03T03:56:03.906Z,21.07
2023-04-03T03:57:03.891Z,21.05
2023-04-03T03:58:03.930Z,21.04
2023-04-03T03:59:04.024Z,21.04
2023-04-03T04:00:04.022Z,21.07
2023-04-03T04:01:04.066Z,21.01
2023-04-03T04:02:04.166Z,20.97
2023-04-03T04:03:04.186Z,21.05
2023-04-03T04:04:04.237Z,20.98
2023-04-03T04:05:04.219Z,20.96
2023-04-03T04:06:04.259Z,21.01
2023-04-03T04:07:04.308Z,20.94
2023-04-03T04:08:04.351Z,20.96
2023-04-03T04:09:04.398Z,20.96
2023-04-03T04:10:04.446Z,20.97
2023-04-03T04:11:04.517Z,20.96
2023-04-03T04:12:04.483Z,20.96
2023-04-03T04:13:04.476Z,20.96
2023-04-03T04:14:04.489Z,20.93
2023-04-03T04:15:04.504Z,20.92
2023-04-03T04:16:04.506Z,20.92
2023-04-03T04:17:04.551Z,20.92
2023-04-03T04:18:04.595Z,20.92
2023-04-03T04:19:06.118Z,20.92
2023-04-03T04:20:04.511Z,20.95
2023-04-03T04:21:04.492Z,20.90
2023-04-03T04:22:04.502Z,20.88
2023-04-03T04:23:04.501Z,20.88
2023-04-03T04:24:04.477Z,20.87
2023-04-03T04:25:04.468Z,20.90
2023-04-03T04:26:04.471Z,20.87
2023-04-03T04:27:04.456Z,20.88
2023-04-03T04:28:04.442Z,20.85
2023-04-03T04:29:04.458Z,20.83
2023-04-03T04:30:04.443Z,20.83
2023-04-03T04:31:04.475Z,20.81
2023-04-03T04:32:04.410Z,20.83
2023-04-03T04:33:04.452Z,20.84
2023-04-03T04:34:04.416Z,20.78
2023-04-03T04:35:04.435Z,20.80
2023-04-03T04:36:04.428Z,20.82
2023-04-03T04:37:04.476Z,20.73
2023-04-03T04:38:04.392Z,20.78
2023-04-03T04:39:04.373Z,20.81
2023-04-03T04:40:04.358Z,20.75
2023-04-03T04:41:04.364Z,20.78
2023-04-03T04:42:04.359Z,20.75
2023-04-03T04:43:04.341Z,20.72
2023-04-03T04:44:04.346Z,20.75
2023-04-03T04:45:04.340Z,20.67
2023-04-03T04:46:04.393Z,20.74
2023-04-03T04:47:04.328Z,20.74
2023-04-03T04:48:04.399Z,20.77
2023-04-03T04:49:04.297Z,20.72
2023-04-03T04:50:04.312Z,20.70
2023-04-03T04:51:04.307Z,20.74
2023-04-03T04:52:04.275Z,20.70
2023-04-03T04:53:04.270Z,20.67
2023-04-03T04:54:04.271Z,20.74
2023-04-03T04:55:04.253Z,20.74
2023-04-03T04:56:04.258Z,20.69
2023-04-03T04:57:04.292Z,20.70
2023-04-03T04:58:04.233Z,20.67
2023-04-03T04:59:04.241Z,20.67
2023-04-03T05:00:04.275Z,20.65
2023-04-03T05:01:04.267Z,20.66
2023-04-03T05:02:04.320Z,20.69
2023-04-03T05:03:04.255Z,20.69
2023-04-03T05:04:04.201Z,20.66
2023-04-03T05:05:05.357Z,20.66
2023-04-03T05:06:04.206Z,20.63
2023-04-03T05:07:04.181Z,20.66
2023-04-03T05:08:04.197Z,20.66
2023-04-03T05:09:04.206Z,20.65
2023-04-03T05:10:04.181Z,20.60
2023-04-03T05:11:04.174Z,20.60
2023-04-03T05:12:04.147Z,20.60
2023-04-03T05:13:04.151Z,20.63
2023-04-03T05:14:04.135Z,20.61
2023-04-03T05:15:04.138Z,20.58
2023-04-03T05:16:04.125Z,20.61
2023-04-03T05:17:04.112Z,20.60
2023-04-03T05:18:04.189Z,20.63
2023-04-03T05:19:04.107Z,20.57
2023-04-03T05:20:04.096Z,20.58
2023-04-03T05:21:04.107Z,20.57
2023-04-03T05:22:04.114Z,20.54
2023-04-03T05:23:04.103Z,20.55
2023-04-03T05:24:04.128Z,20.52
2023-04-03T05:25:04.083Z,20.49
2023-04-03T05:26:04.068Z,20.52
2023-04-03T05:27:04.055Z,20.54
2023-04-03T05:28:04.041Z,20.52
2023-04-03T05:29:04.067Z,20.51
2023-04-03T05:30:04.062Z,20.46
2023-04-03T05:31:04.046Z,20.46
2023-04-03T05:32:04.036Z,20.46
2023-04-03T05:33:04.095Z,20.43
2023-04-03T05:34:04.070Z,20.46
2023-04-03T05:35:04.095Z,20.45
2023-04-03T05:36:04.151Z,20.49
2023-04-03T05:37:04.125Z,20.43
2023-04-03T05:38:04.120Z,20.42
2023-04-03T05:39:04.107Z,20.43
2023-04-03T05:40:04.134Z,20.45
2023-04-03T05:41:04.111Z,20.42
2023-04-03T05:42:04.124Z,20.39
2023-04-03T05:43:04.107Z,20.40
2023-04-03T05:44:04.109Z,20.38
2023-04-03T05:45:04.149Z,20.36
2023-04-03T05:46:04.220Z,20.36
2023-04-03T05:47:04.237Z,20.42
2023-04-03T05:48:04.333Z,20.40
2023-04-03T05:49:04.296Z,20.37
2023-04-03T05:50:04.339Z,20.36
2023-04-03T05:51:04.381Z,20.36
2023-04-03T05:52:04.396Z,20.31
2023-04-03T05:53:04.438Z,20.28
2023-04-03T05:54:04.461Z,20.33
2023-04-03T05:55:04.523Z,20.32
2023-04-03T05:56:04.492Z,20.32
2023-04-03T05:57:04.514Z,20.28
2023-04-03T05:58:04.501Z,20.29
2023-04-03T05:59:04.521Z,20.27
2023-04-03T06:00:04.535Z,20.28
2023-04-03T06:01:04.516Z,20.26
2023-04-03T06:02:04.530Z,20.29
2023-04-03T06:03:04.649Z,20.32
2023-04-03T06:04:04.705Z,20.24
2023-04-03T06:05:04.688Z,20.26
2023-04-03T06:06:04.634Z,20.26
2023-04-03T06:07:04.667Z,20.29
2023-04-03T06:08:04.710Z,20.24
2023-04-03T06:09:04.742Z,20.23
2023-04-03T06:10:04.787Z,20.23
2023-04-03T06:11:04.844Z,20.17
2023-04-03T06:12:04.871Z,20.19
2023-04-03T06:13:04.907Z,20.20
2023-04-03T06:14:04.988Z,20.24
2023-04-03T06:15:04.998Z,20.21
2023-04-03T06:16:05.045Z,20.12
2023-04-03T06:17:05.089Z,20.09
2023-04-03T06:18:05.158Z,20.17
2023-04-03T06:19:05.131Z,20.15
2023-04-03T06:20:05.181Z,20.17
2023-04-03T06:21:05.214Z,20.17
2023-04-03T06:22:05.235Z,20.14
2023-04-03T06:23:07.280Z,20.11
2023-04-03T06:24:05.267Z,20.13
2023-04-03T06:25:05.242Z,20.13
2023-04-03T06:26:05.238Z,20.11
2023-04-03T06:27:05.262Z,20.09
2023-04-03T06:28:05.241Z,20.09
2023-04-03T06:29:05.216Z,20.09
2023-04-03T06:30:05.212Z,20.11
2023-04-03T06:31:05.303Z,20.12
2023-04-03T06:32:05.223Z,20.11
2023-04-03T06:33:05.232Z,20.08
2023-04-03T06:34:07.248Z,20.07
2023-04-03T06:35:05.187Z,20.10
2023-04-03T06:36:05.273Z,20.07
2023-04-03T06:37:05.162Z,20.04
2023-04-03T06:38:05.199Z,20.08
2023-04-03T06:39:05.168Z,20.08
2023-04-03T06:40:05.155Z,19.99
2023-04-03T06:41:05.150Z,20.02
2023-04-03T06:42:05.178Z,19.99
2023-04-03T06:43:05.167Z,19.93
2023-04-03T06:44:05.140Z,19.99
2023-04-03T06:45:05.154Z,19.99
2023-04-03T06:46:05.198Z,19.90
2023-04-03T06:47:05.098Z,19.93
2023-04-03T06:48:05.144Z,20.00
2023-04-03T06:49:05.087Z,19.96
2023-04-03T06:50:05.111Z,19.95
2023-04-03T06:51:05.073Z,19.94
2023-04-03T06:52:05.063Z,19.87
2023-04-03T06:53:05.076Z,19.92
2023-04-03T06:54:05.057Z,19.94
2023-04-03T06:55:05.057Z,19.87
2023-04-03T06:56:05.056Z,19.92
2023-04-03T06:57:05.082Z,19.91
2023-04-03T06:58:05.051Z,19.91
2023-04-03T06:59:05.034Z,19.91
2023-04-03T07:00:05.033Z,19.94
2023-04-03T07:01:05.008Z,19.89
2023-04-03T07:02:05.050Z,19.86
2023-04-03T07:03:05.043Z,19.91
2023-04-03T07:04:05.018Z,19.83
2023-04-03T07:05:05.023Z,19.91
2023-04-03T07:06:04.995Z,19.86
2023-04-03T07:07:04.986Z,19.89
2023-04-03T07:08:05.004Z,19.87
2023-04-03T07:09:04.980Z,19.87
2023-04-03T07:10:04.994Z,19.86
2023-04-03T07:11:04.962Z,19.83
2023-04-03T07:12:04.979Z,19.83
2023-04-03T07:13:04.967Z,19.81
2023-04-03T07:14:04.958Z,19.87
2023-04-03T07:15:04.932Z,19.83
2023-04-03T07:16:04.988Z,19.89
2023-04-03T07:17:04.929Z,19.81
2023-04-03T07:18:04.980Z,19.81
2023-04-03T07:19:04.901Z,19.81
2023-04-03T07:20:04.919Z,19.83
2023-04-03T07:21:04.891Z,19.85
2023-04-03T07:22:04.888Z,19.83
2023-04-03T07:23:04.891Z,19.82
2023-04-03T07:24:04.871Z,19.80
2023-04-03T07:25:04.895Z,19.71
2023-04-03T07:26:04.871Z,19.76
2023-04-03T07:27:04.857Z,19.76
2023-04-03T07:28:04.837Z,19.82
2023-04-03T07:29:04.839Z,19.76
2023-04-03T07:30:04.875Z,19.74
2023-04-03T07:31:04.811Z,19.78
2023-04-03T07:32:04.887Z,19.79
2023-04-03T07:33:04.889Z,19.74
2023-04-03T07:34:04.806Z,19.68
2023-04-03T07:35:04.794Z,19.71
2023-04-03T07:36:04.827Z,19.74
2023-04-03T07:37:04.764Z,19.73
2023-04-03T07:38:04.784Z,19.70
2023-04-03T07:39:04.768Z,19.68
2023-04-03T07:40:04.775Z,19.68
2023-04-03T07:41:04.737Z,19.64
2023-04-03T07:42:04.785Z,19.66
2023-04-03T07:43:04.817Z,19.69
2023-04-03T07:44:04.838Z,19.67
2023-04-03T07:45:04.845Z,19.66
2023-04-03T07:46:04.934Z,19.66
2023-04-03T07:47:04.903Z,19.61
2023-04-03T07:48:05.034Z,19.64
2023-04-03T07:49:05.029Z,19.61
2023-04-03T07:50:05.101Z,19.55
2023-04-03T07:51:05.077Z,19.58
2023-04-03T07:52:05.151Z,19.57
2023-04-03T07:53:05.209Z,19.63
2023-04-03T07:54:05.224Z,19.58
2023-04-03T07:55:05.230Z,19.54
2023-04-03T07:56:05.248Z,19.56
2023-04-03T07:57:05.305Z,19.53
2023-04-03T07:58:05.240Z,19.51
2023-04-03T07:59:05.260Z,19.45
2023-04-03T08:00:05.245Z,19.41
2023-04-03T08:01:05.252Z,19.44
2023-04-03T08:02:05.226Z,19.37
2023-04-03T08:03:05.348Z,19.36
2023-04-03T08:04:05.305Z,19.34
2023-04-03T08:05:05.340Z,19.34
2023-04-03T08:06:06.126Z,19.32
2023-04-03T08:07:05.390Z,19.29
2023-04-03T08:08:05.462Z,19.25
2023-04-03T08:09:05.512Z,19.28
2023-04-03T08:10:05.560Z,19.22
2023-04-03T08:11:05.612Z,19.24
2023-04-03T08:12:05.658Z,19.23
2023-04-03T08:13:05.731Z,19.19
2023-04-03T08:14:05.762Z,19.19
2023-04-03T08:15:05.832Z,19.19
2023-04-03T08:16:05.852Z,19.19
2023-04-03T08:17:05.981Z,19.15
2023-04-03T08:18:06.001Z,19.12
2023-04-03T08:19:09.678Z,19.20
2023-04-03T08:20:06.993Z,19.11
2023-04-03T08:21:05.962Z,19.12
2023-04-03T08:22:05.969Z,19.08
2023-04-03T08:23:05.962Z,19.05
2023-04-03T08:24:05.959Z,19.08
2023-04-03T08:25:05.946Z,19.04
2023-04-03T08:26:05.925Z,18.96
2023-04-03T08:27:05.939Z,18.95
2023-04-03T08:28:05.918Z,18.93
2023-04-03T08:29:05.910Z,18.92
2023-04-03T08:30:05.888Z,18.90
2023-04-03T08:31:05.894Z,18.89
2023-04-03T08:32:05.912Z,18.88
2023-04-03T08:33:05.955Z,18.86
2023-04-03T08:34:05.943Z,18.80
2023-04-03T08:35:06.000Z,18.85
2023-04-03T08:36:05.990Z,18.83
2023-04-03T08:37:05.990Z,18.80
2023-04-03T08:38:06.009Z,18.80
2023-04-03T08:39:06.048Z,18.77
2023-04-03T08:40:06.068Z,18.77
2023-04-03T08:41:06.056Z,18.71
2023-04-03T08:42:06.102Z,18.76
2023-04-03T08:43:06.151Z,18.69
2023-04-03T08:44:06.160Z,18.69
2023-04-03T08:45:06.172Z,18.68
2023-04-03T08:46:06.192Z,18.63
2023-04-03T08:47:06.345Z,18.63
2023-04-03T08:48:06.446Z,18.68
2023-04-03T08:49:06.356Z,18.59
2023-04-03T08:50:06.404Z,18.56
2023-04-03T08:51:10.869Z,18.53
2023-04-03T08:52:07.419Z,18.42
2023-04-03T08:53:06.414Z,18.27
2023-04-03T08:54:06.430Z,18.21
2023-04-03T08:55:06.401Z,18.19
2023-04-03T08:56:06.407Z,18.12
2023-04-03T08:57:06.431Z,18.10
2023-04-03T08:58:06.397Z,18.10
2023-04-03T08:59:06.414Z,18.07
2023-04-03T09:00:06.358Z,18.00
2023-04-03T09:01:06.368Z,18.07
2023-04-03T09:02:06.402Z,18.07
2023-04-03T09:03:06.475Z,18.06
2023-04-03T09:04:06.400Z,18.04
2023-04-03T09:05:06.339Z,18.01
2023-04-03T09:06:06.335Z,17.98
2023-04-03T09:07:06.309Z,17.97
2023-04-03T09:08:06.350Z,17.96
2023-04-03T09:09:06.398Z,17.92
2023-04-03T09:10:06.415Z,17.97
2023-04-03T09:11:06.446Z,17.99
2023-04-03T09:12:06.462Z,17.91
2023-04-03T09:13:06.513Z,17.89
2023-04-03T09:14:06.499Z,17.95
2023-04-03T09:15:06.493Z,17.94
2023-04-03T09:16:06.536Z,17.94
2023-04-03T09:17:06.508Z,17.92
2023-04-03T09:18:06.577Z,17.93
2023-04-03T09:19:06.624Z,17.85
2023-04-03T09:20:06.536Z,17.85
2023-04-03T09:21:06.558Z,17.70
2023-04-03T09:22:06.568Z,17.72
2023-04-03T09:23:06.620Z,17.75
2023-04-03T09:24:06.636Z,17.61
2023-04-03T09:25:06.650Z,17.54
2023-04-03T09:26:06.650Z,17.45
2023-04-03T09:27:06.706Z,17.51
2023-04-03T09:28:06.721Z,17.50
2023-04-03T09:29:06.697Z,17.53
2023-04-03T09:30:06.676Z,17.52
2023-04-03T09:31:06.714Z,17.58
2023-04-03T09:32:06.705Z,17.56
2023-04-03T09:33:06.776Z,17.56
2023-04-03T09:34:06.882Z,17.54
2023-04-03T09:35:18.895Z,17.57
2023-04-03T09:36:07.875Z,17.56
2023-04-03T09:37:06.876Z,17.56
2023-04-03T09:38:06.816Z,17.45
2023-04-03T09:39:06.839Z,17.41
2023-04-03T09:40:06.808Z,17.46
2023-04-03T09:41:06.823Z,17.44
2023-04-03T09:42:06.807Z,17.46
2023-04-03T09:43:06.797Z,17.55
2023-04-03T09:44:06.885Z,17.51
2023-04-03T09:45:06.799Z,17.56
2023-04-03T09:46:06.791Z,17.56
2023-04-03T09:47:06.816Z,17.53
2023-04-03T09:48:08.412Z,17.53
2023-04-03T09:49:09.825Z,17.39
2023-04-03T09:50:06.752Z,17.33
2023-04-03T09:51:06.836Z,17.25
2023-04-03T09:52:06.779Z,17.33
2023-04-03T09:53:06.750Z,17.31
2023-04-03T09:54:06.786Z,17.36
2023-04-03T09:55:06.736Z,17.37
2023-04-03T09:56:06.732Z,17.41
2023-04-03T09:57:06.731Z,17.29
2023-04-03T09:58:06.719Z,17.35
2023-04-03T09:59:06.708Z,17.40
2023-04-03T10:00:06.691Z,17.35
2023-04-03T10:01:06.707Z,17.37
2023-04-03T10:02:06.696Z,17.38
2023-04-03T10:03:06.767Z,17.31
2023-04-03T10:04:06.741Z,17.33
2023-04-03T10:05:10.020Z,17.27
2023-04-03T10:06:06.657Z,17.15
2023-04-03T10:07:06.740Z,17.03
2023-04-03T10:08:06.753Z,16.98
2023-04-03T10:09:06.668Z,16.93
2023-04-03T10:10:06.628Z,16.88
2023-04-03T10:11:06.631Z,16.99
2023-04-03T10:12:06.653Z,17.16
2023-04-03T10:13:06.637Z,17.29
2023-04-03T10:14:07.919Z,17.30
2023-04-03T10:15:06.709Z,17.45
2023-04-03T10:16:06.733Z,17.45
2023-04-03T10:17:06.681Z,17.46
2023-04-03T10:18:21.508Z,17.55
2023-04-03T10:19:07.696Z,17.62
2023-04-03T10:20:06.716Z,17.61
2023-04-03T10:21:07.755Z,17.66
2023-04-03T10:22:07.681Z,17.69
2023-04-03T10:23:06.753Z,17.69
2023-04-03T10:24:06.681Z,17.72
2023-04-03T10:25:06.682Z,17.73
2023-04-03T10:26:06.662Z,17.82
2023-04-03T10:27:06.666Z,17.78
2023-04-03T10:28:06.625Z,17.81
2023-04-03T10:29:06.645Z,17.87
2023-04-03T10:30:06.634Z,17.86
2023-04-03T10:31:06.706Z,17.89
2023-04-03T10:32:06.633Z,17.95
2023-04-03T10:33:06.732Z,17.98
2023-04-03T10:34:06.667Z,18.01
2023-04-03T10:35:06.719Z,17.98
2023-04-03T10:36:06.800Z,17.99
2023-04-03T10:37:06.812Z,18.05
2023-04-03T10:38:06.857Z,18.11
2023-04-03T10:39:06.995Z,18.06
2023-04-03T10:40:06.965Z,18.09
2023-04-03T10:41:07.017Z,18.09
2023-04-03T10:42:16.780Z,18.07
2023-04-03T10:43:08.093Z,18.09
2023-04-03T10:44:07.075Z,18.03
2023-04-03T10:45:07.071Z,18.10
2023-04-03T10:46:07.083Z,18.07
2023-04-03T10:47:07.034Z,18.10
2023-04-03T10:48:07.064Z,18.14
2023-04-03T10:49:07.024Z,18.13
2023-04-03T10:50:07.014Z,18.12
2023-04-03T10:51:07.016Z,18.09
2023-04-03T10:52:07.005Z,18.15
2023-04-03T10:53:07.004Z,18.16
2023-04-03T10:54:07.024Z,18.13
2023-04-03T10:55:07.120Z,18.13
2023-04-03T10:56:07.055Z,18.11
2023-04-03T10:57:12.544Z,18.16
2023-04-03T10:58:08.068Z,18.13
2023-04-03T10:59:07.071Z,18.10
2023-04-03T11:00:07.040Z,18.19
2023-04-03T11:01:07.063Z,18.13
2023-04-03T11:02:07.045Z,18.16
2023-04-03T11:03:07.117Z,18.11
2023-04-03T11:04:07.286Z,18.17
2023-04-03T11:05:07.029Z,18.15
2023-04-03T11:06:07.000Z,18.18
2023-04-03T11:07:07.000Z,18.20
2023-04-03T11:08:07.035Z,18.17
2023-04-03T11:09:06.980Z,18.11
2023-04-03T11:10:06.999Z,18.18
2023-04-03T11:11:07.080Z,18.12
2023-04-03T11:12:06.958Z,18.12
2023-04-03T11:13:06.953Z,18.05
2023-04-03T11:14:06.965Z,17.99
2023-04-03T11:15:06.956Z,17.94
2023-04-03T11:16:06.984Z,17.91
2023-04-03T11:17:06.954Z,17.85
2023-04-03T11:18:08.182Z,17.79
2023-04-03T11:19:07.039Z,17.76
2023-04-03T11:20:07.093Z,17.77
2023-04-03T11:21:07.163Z,17.70
2023-04-03T11:22:07.232Z,17.64
2023-04-03T11:23:07.253Z,17.61
2023-04-03T11:24:07.291Z,17.64
2023-04-03T11:25:07.327Z,17.62
2023-04-03T11:26:07.378Z,17.59
2023-04-03T11:27:07.519Z,17.54
2023-04-03T11:28:07.538Z,17.50
2023-04-03T11:29:07.525Z,17.48
2023-04-03T11:30:07.570Z,17.53
2023-04-03T11:31:07.696Z,17.46
2023-04-03T11:32:07.693Z,17.40
2023-04-03T11:33:07.807Z,17.46
2023-04-03T11:34:07.766Z,17.41
2023-04-03T11:35:07.772Z,17.40
2023-04-03T11:36:15.759Z,17.36
2023-04-03T11:37:08.809Z,17.28
2023-04-03T11:38:07.796Z,17.25
2023-04-03T11:39:07.848Z,17.24
2023-04-03T11:40:07.799Z,17.25
2023-04-03T11:41:07.801Z,17.16
2023-04-03T11:42:13.115Z,17.15
2023-04-03T11:43:08.858Z,17.09
2023-04-03T11:44:07.775Z,17.12
2023-04-03T11:45:07.778Z,17.09
2023-04-03T11:46:07.765Z,17.11
2023-04-03T11:47:07.780Z,17.08
2023-04-03T11:48:23.242Z,17.06
2023-04-03T11:49:08.738Z,17.09
2023-04-03T11:50:07.727Z,17.11
2023-04-03T11:51:07.719Z,17.06
2023-04-03T11:52:07.748Z,17.06
2023-04-03T11:53:07.730Z,17.05
2023-04-03T11:54:07.726Z,17.08
2023-04-03T11:55:07.681Z,17.03
2023-04-03T11:56:07.701Z,17.06
2023-04-03T11:57:07.828Z,17.09
2023-04-03T11:58:07.828Z,17.08
2023-04-03T11:59:07.946Z,17.05
2023-04-03T12:00:07.921Z,17.02
2023-04-03T12:01:07.985Z,17.00
2023-04-03T12:02:08.005Z,17.02
2023-04-03T12:03:08.117Z,17.05
2023-04-03T12:04:08.211Z,17.06
2023-04-03T12:05:08.032Z,17.11
2023-04-03T12:06:08.181Z,17.03
2023-04-03T12:07:08.130Z,17.04
2023-04-03T12:08:08.198Z,17.06
2023-04-03T12:09:08.240Z,17.04
2023-04-03T12:10:08.772Z,17.06
2023-04-03T12:11:08.322Z,17.09
2023-04-03T12:12:08.355Z,17.09
2023-04-03T12:13:08.456Z,17.09
2023-04-03T12:14:08.443Z,17.12
2023-04-03T12:15:08.454Z,17.06
2023-04-03T12:16:08.498Z,17.04
2023-04-03T12:17:08.562Z,17.04
2023-04-03T12:18:08.566Z,17.13
2023-04-03T12:19:08.602Z,17.10
2023-04-03T12:20:08.625Z,17.07
2023-04-03T12:21:08.697Z,17.09
2023-04-03T12:22:08.738Z,17.06
2023-04-03T12:23:08.823Z,17.06
2023-04-03T12:24:08.860Z,17.09
2023-04-03T12:25:08.890Z,17.04
2023-04-03T12:26:08.944Z,17.00
2023-04-03T12:27:08.977Z,17.04
2023-04-03T12:28:09.008Z,17.01
2023-04-03T12:29:09.057Z,16.93
2023-04-03T12:30:09.129Z,17.06
2023-04-03T12:31:09.278Z,16.98
2023-04-03T12:32:09.212Z,17.03
2023-04-03T12:33:13.217Z,17.01
2023-04-03T12:34:09.270Z,17.04
2023-04-03T12:35:09.239Z,17.06
2023-04-03T12:36:09.263Z,17.07
2023-04-03T12:37:09.214Z,17.04
2023-04-03T12:38:09.228Z,17.01
2023-04-03T12:39:09.223Z,17.06
2023-04-03T12:40:09.192Z,16.99
2023-04-03T12:41:09.187Z,17.01
2023-04-03T12:42:09.210Z,16.98
2023-04-03T12:43:09.198Z,17.04
2023-04-03T12:44:09.270Z,17.05
2023-04-03T12:45:09.175Z,17.04
2023-04-03T12:46:09.271Z,17.05
2023-04-03T12:47:09.292Z,17.01
2023-04-03T12:48:09.160Z,17.08
2023-04-03T12:49:09.135Z,17.02
2023-04-03T12:50:09.176Z,17.01
2023-04-03T12:51:09.130Z,17.04
2023-04-03T12:52:09.117Z,16.95
2023-04-03T12:53:09.126Z,17.03